This is the latest recevied weather packets stored in our database for station/object N0TKN. If no packets are shown the sender has not sent any weather packets the latest 10 day(s).
| Time | Temp. | Humidity | Pressure | Rain* | Wind** | Luminosity | Snow |
|---|---|---|---|---|---|---|---|
| 1777338317 | 20.56° C | 88% | 1005.6 hPa | 0 mm | - | 2 W/m² | - |
| 1777337717 | 20.56° C | 90% | 1005.5 hPa | 0 mm | - | 7 W/m² | - |
| 1777337117 | 21.11° C | 90% | 1005.4 hPa | 0 mm | - | 14 W/m² | - |
| 1777336517 | 21.11° C | 90% | 1005.1 hPa | 0 mm | - | 22 W/m² | - |
| 1777335918 | 21.11° C | 90% | 1004.9 hPa | 0 mm | - | 30 W/m² | - |
| 1777335318 | 21.11° C | 89% | 1004.7 hPa | 0 mm | - | 39 W/m² | - |
| 1777334718 | 21.11° C | 89% | 1004.6 hPa | 0 mm | - | 50 W/m² | - |
| 1777334118 | 21.11° C | 89% | 1004.4 hPa | 0 mm | - | 58 W/m² | - |
| 1777333515 | 21.11° C | 89% | 1004.3 hPa | 0 mm | - | 73 W/m² | - |
| 1777332918 | 21.11° C | 88% | 1004.1 hPa | 0 mm | - | 79 W/m² | - |
| 1777332319 | 20.56° C | 88% | 1003.8 hPa | 0.25 mm | - | 88 W/m² | - |
| 1777331716 | 20.56° C | 87% | 1003.7 hPa | 0.25 mm | - | 134 W/m² | - |
| 1777331117 | 20° C | 88% | 1003.4 hPa | 0.25 mm | - | 146 W/m² | - |
| 1777330516 | 19.44° C | 92% | 1003.4 hPa | 0.25 mm | - | 141 W/m² | - |
| 1777329916 | 20° C | 92% | 1003.8 hPa | 0.25 mm | - | 138 W/m² | - |
| 1777329317 | 20° C | 90% | 1003.7 hPa | 0.25 mm | - | 113 W/m² | - |
| 1777328717 | 20.56° C | 89% | 1003.4 hPa | 0.25 mm | - | 37 W/m² | - |
| 1777328117 | 21.67° C | 88% | 1002.7 hPa | 0.25 mm | - | 142 W/m² | - |
| 1777327517 | 22.78° C | 83% | 1003.2 hPa | 0.25 mm | - | 119 W/m² | - |
| 1777326917 | 25° C | 78% | 1001.7 hPa | 0 mm | - | 45 W/m² | - |
| 1777326317 | 26.11° C | 73% | 1000.7 hPa | 0 mm | - | 60 W/m² | - |
| 1777325718 | 26.11° C | 73% | 1000.3 hPa | 0 mm | - | 125 W/m² | - |
| 1777325118 | 26.11° C | 73% | 1000.4 hPa | 0 mm | - | 55 W/m² | - |
| 1777324518 | 25.56° C | 75% | 1000.2 hPa | 0 mm | - | 38 W/m² | - |
| 1777323918 | 25.56° C | 78% | 1000.4 hPa | 0 mm | - | 36 W/m² | - |
* Rain latest hour (hover to see other rain measurements)
** Current wind speed in m/s (hover to see current wind gust speed)